createdAt,value
2022-11-14T00:00:58.210Z,20.50
2022-11-14T00:03:40.365Z,15.87
2022-11-14T00:06:22.148Z,20.33
2022-11-14T00:09:04.455Z,19.37
2022-11-14T00:11:46.118Z,16.37
2022-11-14T00:14:28.119Z,15.20
2022-11-14T00:17:11.773Z,14.20
2022-11-14T00:19:53.726Z,14.23
2022-11-14T00:22:36.242Z,15.77
2022-11-14T00:25:18.021Z,23.73
2022-11-14T00:28:00.316Z,20.13
2022-11-14T00:30:42.250Z,20.63
2022-11-14T00:33:25.350Z,20.17
2022-11-14T00:36:07.653Z,19.70
2022-11-14T00:38:49.683Z,18.17
2022-11-14T00:41:31.603Z,20.60
2022-11-14T00:44:13.537Z,18.65
2022-11-14T00:46:55.572Z,19.03
2022-11-14T00:49:38.684Z,20.60
2022-11-14T00:52:20.437Z,17.43
2022-11-14T00:55:02.542Z,14.67
2022-11-14T00:57:44.519Z,14.90
2022-11-14T01:00:26.463Z,16.30
2022-11-14T01:03:08.961Z,14.90
2022-11-14T01:05:53.074Z,14.47
2022-11-14T01:08:35.438Z,17.15
2022-11-14T01:11:20.411Z,17.13
2022-11-14T01:14:02.174Z,15.63
2022-11-14T01:16:44.200Z,17.27
2022-11-14T01:19:25.898Z,19.93
2022-11-14T01:22:09.850Z,17.88
2022-11-14T01:24:51.761Z,17.63
2022-11-14T01:27:33.679Z,17.00
2022-11-14T01:30:16.189Z,16.20
2022-11-14T01:32:58.066Z,19.27
2022-11-14T01:35:40.425Z,20.53
2022-11-14T01:38:23.465Z,17.73
2022-11-14T01:41:06.581Z,17.80
2022-11-14T01:43:48.864Z,19.43
2022-11-14T01:46:35.252Z,18.87
2022-11-14T01:49:22.243Z,19.43
2022-11-14T01:52:08.499Z,20.27
2022-11-14T01:54:54.756Z,16.17
2022-11-14T01:57:42.155Z,16.83
2022-11-14T02:00:24.062Z,16.60
2022-11-14T02:03:06.079Z,15.00
2022-11-14T02:05:50.078Z,18.57
2022-11-14T02:08:32.907Z,16.60
2022-11-14T02:11:16.272Z,16.53
2022-11-14T02:13:59.093Z,18.00
2022-11-14T02:16:55.465Z,17.43
2022-11-14T02:19:45.645Z,14.70
2022-11-14T02:22:28.690Z,15.87
2022-11-14T02:25:14.495Z,16.83
2022-11-14T02:27:57.178Z,15.50
2022-11-14T02:30:38.960Z,18.60
2022-11-14T02:33:20.785Z,14.90
2022-11-14T02:36:02.844Z,16.47
2022-11-14T02:38:46.465Z,15.13
2022-11-14T02:41:27.977Z,15.47
2022-11-14T02:44:10.052Z,14.57
2022-11-14T02:46:52.082Z,13.67
2022-11-14T02:49:33.629Z,12.93
2022-11-14T02:52:15.770Z,14.13
2022-11-14T02:54:59.133Z,16.47
2022-11-14T02:57:40.924Z,13.93
2022-11-14T03:00:23.103Z,15.57
2022-11-14T03:03:04.983Z,15.17
2022-11-14T03:05:46.975Z,13.37
2022-11-14T03:08:29.567Z,14.97
2022-11-14T03:11:12.916Z,15.67
2022-11-14T03:13:54.970Z,16.83
2022-11-14T03:16:36.970Z,12.87
2022-11-14T03:19:19.526Z,14.77
2022-11-14T03:22:01.819Z,18.27
2022-11-14T03:24:43.715Z,17.67
2022-11-14T03:27:27.208Z,20.00
2022-11-14T03:30:10.871Z,15.27
2022-11-14T03:32:52.847Z,16.23
2022-11-14T03:35:34.619Z,17.67
2022-11-14T03:38:16.262Z,19.07
2022-11-14T03:40:59.896Z,23.37
2022-11-14T03:43:42.826Z,18.23
2022-11-14T03:46:24.714Z,16.33
2022-11-14T03:49:06.873Z,17.37
2022-11-14T03:51:48.874Z,18.90
2022-11-14T03:54:30.986Z,19.53
2022-11-14T03:57:12.977Z,16.07
2022-11-14T03:59:56.172Z,16.97
2022-11-14T04:02:37.988Z,17.83
2022-11-14T04:05:20.032Z,18.60
2022-11-14T04:08:02.116Z,17.10
2022-11-14T04:10:43.775Z,16.40
2022-11-14T04:13:25.871Z,16.70
2022-11-14T04:16:09.504Z,17.17
2022-11-14T04:18:51.355Z,16.33
2022-11-14T04:21:33.330Z,15.47
2022-11-14T04:24:15.277Z,20.57
2022-11-14T04:26:57.516Z,14.63
2022-11-14T04:29:39.534Z,19.07
2022-11-14T04:32:23.128Z,14.60
2022-11-14T04:35:05.887Z,13.57
2022-11-14T04:37:47.947Z,13.33
2022-11-14T04:40:29.764Z,13.00
2022-11-14T04:43:11.976Z,12.97
2022-11-14T04:45:53.879Z,12.33
2022-11-14T04:48:36.955Z,12.13
2022-11-14T04:51:19.499Z,12.10
2022-11-14T04:54:01.386Z,10.67
2022-11-14T04:56:43.490Z,10.27
2022-11-14T04:59:25.482Z,8.77
2022-11-14T05:02:07.469Z,8.70
2022-11-14T05:04:50.752Z,9.07
2022-11-14T05:07:33.964Z,8.27
2022-11-14T05:10:16.249Z,9.67
2022-11-14T05:12:58.385Z,10.03
2022-11-14T05:15:40.103Z,11.63
2022-11-14T05:18:21.918Z,10.33
2022-11-14T05:21:06.354Z,10.93
2022-11-14T05:23:48.151Z,9.73
2022-11-14T05:26:30.487Z,10.17
2022-11-14T05:29:12.275Z,10.20
2022-11-14T05:31:54.150Z,9.87
2022-11-14T05:34:35.997Z,9.57
2022-11-14T05:37:19.291Z,8.53
2022-11-14T05:40:01.057Z,9.30
2022-11-14T05:42:43.082Z,7.03
2022-11-14T05:45:25.024Z,7.57
2022-11-14T05:48:07.491Z,9.47
2022-11-14T05:50:49.237Z,8.07
2022-11-14T05:53:34.342Z,7.50
2022-11-14T05:56:16.107Z,9.57
2022-11-14T05:58:58.076Z,8.60
2022-11-14T06:01:40.104Z,8.37
2022-11-14T06:04:22.142Z,8.67
2022-11-14T06:07:04.074Z,9.07
2022-11-14T06:09:47.591Z,9.40
2022-11-14T06:12:29.428Z,9.63
2022-11-14T06:15:11.837Z,9.47
2022-11-14T06:17:54.377Z,8.07
2022-11-14T06:20:36.063Z,10.27
2022-11-14T06:23:23.433Z,8.63
2022-11-14T06:26:14.054Z,11.13
2022-11-14T06:28:56.074Z,8.17
2022-11-14T06:31:37.839Z,10.90
2022-11-14T06:34:19.650Z,8.87
2022-11-14T06:37:01.741Z,8.77
2022-11-14T06:39:43.512Z,8.40
2022-11-14T06:42:26.733Z,10.33
2022-11-14T06:45:10.046Z,9.60
2022-11-14T06:47:52.281Z,7.97
2022-11-14T06:50:34.394Z,8.50
2022-11-14T06:53:16.364Z,11.13
2022-11-14T06:56:00.504Z,12.53
2022-11-14T06:58:46.165Z,13.13
2022-11-14T07:01:28.351Z,11.23
2022-11-14T07:04:11.172Z,9.43
2022-11-14T07:06:53.127Z,13.93
2022-11-14T07:09:35.041Z,10.70
2022-11-14T07:12:16.947Z,12.30
2022-11-14T07:15:00.510Z,10.13
2022-11-14T07:17:42.558Z,10.57
2022-11-14T07:20:24.264Z,11.53
2022-11-14T07:23:06.339Z,15.27
2022-11-14T07:25:48.714Z,11.17
2022-11-14T07:28:32.163Z,12.57
2022-11-14T07:31:18.054Z,12.03
2022-11-14T07:34:00.106Z,10.27
2022-11-14T07:36:41.990Z,14.13
2022-11-14T07:39:24.192Z,15.00
2022-11-14T07:42:06.213Z,11.13
2022-11-14T07:44:48.296Z,13.70
2022-11-14T07:47:31.830Z,14.43
2022-11-14T07:50:19.114Z,13.63
2022-11-14T07:53:02.236Z,13.33
2022-11-14T07:55:44.734Z,14.10
2022-11-14T07:58:26.321Z,13.63
2022-11-14T08:01:11.980Z,19.57
2022-11-14T08:03:56.667Z,17.53
2022-11-14T08:06:38.775Z,14.95
2022-11-14T08:09:20.591Z,20.07
2022-11-14T08:12:02.884Z,18.60
2022-11-14T08:14:44.815Z,23.08
2022-11-14T08:17:26.942Z,29.00
2022-11-14T08:20:12.367Z,25.07
2022-11-14T08:22:54.429Z,22.97
2022-11-14T08:25:36.167Z,25.98
2022-11-14T08:28:17.920Z,28.23
2022-11-14T08:31:03.878Z,26.83
2022-11-14T08:33:46.018Z,26.45
2022-11-14T08:36:29.448Z,28.25
2022-11-14T08:39:11.315Z,26.77
2022-11-14T08:41:53.346Z,27.98
2022-11-14T08:44:35.635Z,33.05
2022-11-14T08:47:17.694Z,25.38
2022-11-14T08:49:59.550Z,27.40
2022-11-14T08:52:42.656Z,26.17
2022-11-14T08:55:24.655Z,26.50
2022-11-14T08:58:06.839Z,27.83
2022-11-14T09:00:48.565Z,26.95
2022-11-14T09:03:30.408Z,24.35
2022-11-14T09:06:12.659Z,26.45
2022-11-14T09:08:56.021Z,28.25
2022-11-14T09:11:37.946Z,27.10
2022-11-14T09:14:19.995Z,29.75
2022-11-14T09:17:05.669Z,29.75
2022-11-14T09:19:47.959Z,27.63
2022-11-14T09:22:29.812Z,27.67
2022-11-14T09:25:13.438Z,29.67
2022-11-14T09:27:55.598Z,28.40
2022-11-14T09:30:40.133Z,30.33
2022-11-14T09:33:22.184Z,27.35
2022-11-14T09:36:06.857Z,29.58
2022-11-14T09:38:48.738Z,30.52
2022-11-14T09:41:50.122Z,30.67
2022-11-14T09:44:49.751Z,29.10
2022-11-14T09:47:34.705Z,31.00
2022-11-14T09:50:24.628Z,30.55
2022-11-14T09:53:18.030Z,30.65
2022-11-14T09:56:00.584Z,31.70
2022-11-14T09:58:44.076Z,30.52
2022-11-14T10:01:38.400Z,34.80
2022-11-14T10:04:29.637Z,30.25
2022-11-14T10:07:21.041Z,30.98
2022-11-14T10:10:11.999Z,33.75
2022-11-14T10:13:04.441Z,30.52
2022-11-14T10:15:56.000Z,30.00
2022-11-14T10:19:01.911Z,28.23
2022-11-14T10:22:05.025Z,30.20
2022-11-14T10:25:02.492Z,30.63
2022-11-14T10:27:59.721Z,29.98
2022-11-14T10:30:56.333Z,31.40
2022-11-14T10:33:53.127Z,28.90
2022-11-14T10:36:55.606Z,26.73
2022-11-14T10:39:44.335Z,28.75
2022-11-14T10:42:32.495Z,26.60
2022-11-14T10:45:27.075Z,26.27
2022-11-14T10:48:17.104Z,25.27
2022-11-14T10:51:01.352Z,24.08
2022-11-14T10:53:52.351Z,23.40
2022-11-14T10:56:34.362Z,23.52
2022-11-14T10:59:16.469Z,21.92
2022-11-14T11:01:59.740Z,25.38
2022-11-14T11:04:44.401Z,16.95
2022-11-14T11:07:45.091Z,21.50
2022-11-14T11:10:44.700Z,23.40
2022-11-14T11:13:34.048Z,19.90
2022-11-14T11:16:15.922Z,24.50
2022-11-14T11:19:20.036Z,19.60
2022-11-14T11:22:03.412Z,22.48
2022-11-14T11:24:45.135Z,20.88
2022-11-14T11:27:29.628Z,20.70
2022-11-14T11:30:23.150Z,20.20
2022-11-14T11:33:22.980Z,19.73
2022-11-14T11:36:12.791Z,23.63
2022-11-14T11:38:56.178Z,22.13
2022-11-14T11:42:07.733Z,21.98
2022-11-14T11:44:47.688Z,24.10
2022-11-14T11:47:34.489Z,21.42
2022-11-14T11:50:19.350Z,21.25
2022-11-14T11:53:14.022Z,19.73
2022-11-14T11:56:02.762Z,22.88
2022-11-14T11:58:49.689Z,20.13
2022-11-14T12:01:31.787Z,24.42
2022-11-14T12:04:13.872Z,22.63
2022-11-14T12:07:05.830Z,23.27
2022-11-14T12:10:09.864Z,24.25
2022-11-14T12:13:12.613Z,23.88
2022-11-14T12:16:12.865Z,23.48
2022-11-14T12:19:35.928Z,25.70
2022-11-14T12:22:41.041Z,24.58
2022-11-14T12:25:59.967Z,25.73
2022-11-14T12:29:02.284Z,24.38
2022-11-14T12:31:45.318Z,27.00
2022-11-14T12:34:33.897Z,26.55
2022-11-14T12:37:20.690Z,23.13
2022-11-14T12:40:07.031Z,24.80
2022-11-14T12:42:49.865Z,23.35
2022-11-14T12:46:02.522Z,24.20
2022-11-14T12:48:45.260Z,24.23
2022-11-14T12:51:52.681Z,28.17
2022-11-14T12:54:46.537Z,27.83
2022-11-14T12:57:49.125Z,25.15
2022-11-14T13:00:31.810Z,23.75
2022-11-14T13:03:32.779Z,24.30
2022-11-14T13:06:25.104Z,24.67
2022-11-14T13:09:40.776Z,23.20
2022-11-14T13:12:49.981Z,25.90
2022-11-14T13:15:52.346Z,21.70
2022-11-14T13:18:53.726Z,25.40
2022-11-14T13:21:48.635Z,22.63
2022-11-14T13:25:16.504Z,22.50
2022-11-14T13:28:44.883Z,24.75
2022-11-14T13:31:44.071Z,24.17
2022-11-14T13:34:53.564Z,26.33
2022-11-14T13:38:06.852Z,25.23
2022-11-14T13:41:00.237Z,23.92
2022-11-14T13:44:01.757Z,28.92
2022-11-14T13:47:06.563Z,25.40
2022-11-14T13:50:01.765Z,22.75
2022-11-14T13:52:45.971Z,22.83
2022-11-14T13:55:39.513Z,29.60
2022-11-14T13:58:36.245Z,27.40
2022-11-14T14:01:38.373Z,25.52
2022-11-14T14:04:39.331Z,28.23
2022-11-14T14:07:31.597Z,26.30
2022-11-14T14:10:27.660Z,27.83
2022-11-14T14:13:26.005Z,24.40
2022-11-14T14:16:14.648Z,22.27
2022-11-14T14:19:12.420Z,28.35
2022-11-14T14:22:02.618Z,26.25
2022-11-14T14:24:55.861Z,24.83
2022-11-14T14:27:47.448Z,24.63
2022-11-14T14:30:29.678Z,23.33
2022-11-14T14:33:14.288Z,24.88
2022-11-14T14:35:57.655Z,24.30
2022-11-14T14:38:39.657Z,25.83
2022-11-14T14:41:22.018Z,24.55
2022-11-14T14:44:04.226Z,24.77
2022-11-14T14:46:45.988Z,26.10
2022-11-14T14:49:31.676Z,24.90
2022-11-14T14:52:31.656Z,24.38
2022-11-14T14:55:25.345Z,25.55
2022-11-14T14:58:22.232Z,25.92
2022-11-14T15:01:10.009Z,27.58
2022-11-14T15:03:57.526Z,23.92
2022-11-14T15:06:40.591Z,23.95
2022-11-14T15:09:26.053Z,26.88
2022-11-14T15:12:08.709Z,23.52
2022-11-14T15:14:50.933Z,25.70
2022-11-14T15:17:36.013Z,23.77
2022-11-14T15:20:27.277Z,26.45
2022-11-14T15:23:21.755Z,27.55
2022-11-14T15:26:06.513Z,25.42
2022-11-14T15:28:48.566Z,24.45
2022-11-14T15:31:30.507Z,26.40
2022-11-14T15:34:27.534Z,24.73
2022-11-14T15:37:22.917Z,24.70
2022-11-14T15:40:19.005Z,25.77
2022-11-14T15:43:02.844Z,25.63
2022-11-14T15:45:44.671Z,24.65
2022-11-14T15:48:26.718Z,23.45
2022-11-14T15:51:08.569Z,26.13
2022-11-14T15:53:53.328Z,26.90
2022-11-14T15:56:35.022Z,25.25
2022-11-14T15:59:19.022Z,29.55
2022-11-14T16:02:07.959Z,24.13
2022-11-14T16:04:51.552Z,22.15
2022-11-14T16:07:33.847Z,25.65
2022-11-14T16:10:20.201Z,24.75
2022-11-14T16:13:01.791Z,24.35
2022-11-14T16:15:44.955Z,26.83
2022-11-14T16:18:27.413Z,22.23
2022-11-14T16:21:11.909Z,27.63
2022-11-14T16:23:53.671Z,23.17
2022-11-14T16:26:36.023Z,21.23
2022-11-14T16:29:17.933Z,21.73
2022-11-14T16:32:01.555Z,23.90
2022-11-14T16:34:43.253Z,21.92
2022-11-14T16:37:25.896Z,21.48
2022-11-14T16:40:15.150Z,20.63
2022-11-14T16:42:59.599Z,23.35
2022-11-14T16:45:42.087Z,23.08
2022-11-14T16:48:25.216Z,23.25
2022-11-14T16:51:33.097Z,19.33
2022-11-14T16:54:11.896Z,28.52
2022-11-14T16:56:53.911Z,22.02
2022-11-14T16:59:35.756Z,24.63
2022-11-14T17:02:18.243Z,23.95
2022-11-14T17:05:01.878Z,22.77
2022-11-14T17:07:43.963Z,23.33
2022-11-14T17:10:25.864Z,21.85
2022-11-14T17:13:08.130Z,23.05
2022-11-14T17:15:49.873Z,23.48
2022-11-14T17:18:37.136Z,22.15
2022-11-14T17:21:23.100Z,20.27
2022-11-14T17:24:05.756Z,23.58
2022-11-14T17:26:47.684Z,21.75
2022-11-14T17:29:29.530Z,22.80
2022-11-14T17:32:11.494Z,21.45
2022-11-14T17:34:53.092Z,20.75
2022-11-14T17:37:36.687Z,23.63
2022-11-14T17:40:18.841Z,22.05
2022-11-14T17:43:00.454Z,25.95
2022-11-14T17:45:42.494Z,22.90
2022-11-14T17:48:24.327Z,23.65
2022-11-14T17:51:07.737Z,22.42
2022-11-14T17:53:51.320Z,22.02
2022-11-14T17:56:32.938Z,23.85
2022-11-14T17:59:15.326Z,22.67
2022-11-14T18:01:59.867Z,22.90
2022-11-14T18:04:42.223Z,24.77
2022-11-14T18:07:24.181Z,21.25
2022-11-14T18:10:08.886Z,21.70
2022-11-14T18:12:51.003Z,21.20
2022-11-14T18:15:33.327Z,20.23
2022-11-14T18:18:15.258Z,17.30
2022-11-14T18:20:57.293Z,20.27
2022-11-14T18:23:39.756Z,20.20
2022-11-14T18:26:27.522Z,20.40
2022-11-14T18:29:09.716Z,20.20
2022-11-14T18:31:51.478Z,22.00
2022-11-14T18:34:33.206Z,17.13
2022-11-14T18:37:15.348Z,19.42
2022-11-14T18:39:57.550Z,21.33
2022-11-14T18:42:41.120Z,19.80
2022-11-14T18:45:23.529Z,18.30
2022-11-14T18:48:05.881Z,17.42
2022-11-14T18:50:48.271Z,19.55
2022-11-14T18:53:33.279Z,20.33
2022-11-14T18:56:17.850Z,19.88
2022-11-14T18:59:01.024Z,19.02
2022-11-14T19:01:43.148Z,21.90
2022-11-14T19:04:25.431Z,21.92
2022-11-14T19:07:07.130Z,20.27
2022-11-14T19:09:49.453Z,18.42
2022-11-14T19:12:31.390Z,22.42
2022-11-14T19:15:15.558Z,18.60
2022-11-14T19:17:57.711Z,22.67
2022-11-14T19:20:40.253Z,21.23
2022-11-14T19:23:22.349Z,19.23
2022-11-14T19:26:04.286Z,21.25
2022-11-14T19:28:46.535Z,21.02
2022-11-14T19:31:30.131Z,18.75
2022-11-14T19:34:12.357Z,18.70
2022-11-14T19:37:02.004Z,18.67
2022-11-14T19:39:44.414Z,17.40
2022-11-14T19:42:30.501Z,20.48
2022-11-14T19:45:12.995Z,20.13
2022-11-14T19:47:56.346Z,15.98
2022-11-14T19:50:38.127Z,17.13
2022-11-14T19:53:20.228Z,17.50
2022-11-14T19:56:03.772Z,18.63
2022-11-14T19:58:47.752Z,17.85
2022-11-14T20:01:30.434Z,19.42
2022-11-14T20:04:15.210Z,19.80
2022-11-14T20:06:57.042Z,17.05
2022-11-14T20:09:39.127Z,20.67
2022-11-14T20:12:21.292Z,19.30
2022-11-14T20:15:03.121Z,19.00
2022-11-14T20:17:45.237Z,17.92
2022-11-14T20:20:28.568Z,18.15
2022-11-14T20:23:10.615Z,20.27
2022-11-14T20:25:53.377Z,20.00
2022-11-14T20:28:35.685Z,19.50
2022-11-14T20:31:19.956Z,18.13
2022-11-14T20:34:01.685Z,18.55
2022-11-14T20:37:09.969Z,17.58
2022-11-14T20:39:48.883Z,19.27
2022-11-14T20:42:30.935Z,16.63
2022-11-14T20:45:13.061Z,22.33
2022-11-14T20:47:55.261Z,21.65
2022-11-14T20:50:36.932Z,16.67
2022-11-14T20:53:20.793Z,17.83
2022-11-14T20:56:03.998Z,19.08
2022-11-14T20:58:47.804Z,17.95
2022-11-14T21:01:29.729Z,19.30
2022-11-14T21:04:12.048Z,18.88
2022-11-14T21:06:54.172Z,17.25
2022-11-14T21:09:37.592Z,16.48
2022-11-14T21:12:19.206Z,19.83
2022-11-14T21:15:01.693Z,16.80
2022-11-14T21:17:43.948Z,18.65
2022-11-14T21:20:26.206Z,16.38
2022-11-14T21:23:14.794Z,19.65
2022-11-14T21:26:12.023Z,17.20
2022-11-14T21:28:57.790Z,15.70
2022-11-14T21:31:42.908Z,18.00
2022-11-14T21:34:25.133Z,16.90
2022-11-14T21:37:07.488Z,19.55
2022-11-14T21:39:49.287Z,19.83
2022-11-14T21:42:32.575Z,15.82
2022-11-14T21:45:15.751Z,17.00
2022-11-14T21:47:57.767Z,16.85
2022-11-14T21:50:40.208Z,20.65
2022-11-14T21:53:22.113Z,18.25
2022-11-14T21:56:12.837Z,17.42
2022-11-14T21:59:12.744Z,16.98
2022-11-14T22:02:12.800Z,17.02
2022-11-14T22:04:54.937Z,16.25
2022-11-14T22:07:41.318Z,17.27
2022-11-14T22:10:26.243Z,16.52
2022-11-14T22:13:08.179Z,15.60
2022-11-14T22:15:51.332Z,14.45
2022-11-14T22:18:33.203Z,15.85
2022-11-14T22:21:15.385Z,15.35
2022-11-14T22:23:57.931Z,16.10
2022-11-14T22:26:41.395Z,19.55
2022-11-14T22:29:23.047Z,17.67
2022-11-14T22:32:06.296Z,16.98
2022-11-14T22:34:47.927Z,17.42
2022-11-14T22:37:29.878Z,17.27
2022-11-14T22:40:13.643Z,18.73
2022-11-14T22:42:55.839Z,14.95
2022-11-14T22:45:37.799Z,17.05
2022-11-14T22:48:21.301Z,15.00
2022-11-14T22:51:05.194Z,14.70
2022-11-14T22:53:49.250Z,13.27
2022-11-14T22:56:31.937Z,14.68
2022-11-14T22:59:13.783Z,14.95
2022-11-14T23:01:56.667Z,17.15
2022-11-14T23:04:40.091Z,15.13
2022-11-14T23:07:21.828Z,16.77
2022-11-14T23:10:04.690Z,16.13
2022-11-14T23:12:46.755Z,15.45
2022-11-14T23:15:29.118Z,16.83
2022-11-14T23:18:11.052Z,15.38
2022-11-14T23:20:54.336Z,15.38
2022-11-14T23:23:36.441Z,17.17
2022-11-14T23:26:19.707Z,15.82
2022-11-14T23:29:02.054Z,13.07
2022-11-14T23:31:44.012Z,13.05
2022-11-14T23:34:26.108Z,16.17
2022-11-14T23:37:09.413Z,14.52
2022-11-14T23:39:51.311Z,14.43
2022-11-14T23:42:32.907Z,14.60
2022-11-14T23:45:15.095Z,15.35
2022-11-14T23:47:57.210Z,16.60
2022-11-14T23:50:39.062Z,17.00
2022-11-14T23:53:22.918Z,16.83
2022-11-14T23:56:04.890Z,16.70
2022-11-14T23:58:46.966Z,15.18
